sensor_id;sensor_type;location;lat;lon;timestamp;P1;durP1;ratioP1;P2;durP2;ratioP2
47299;SDS011;33036;51.320;17.234;2022-11-27T00:02:21;74.13;;;29.60;;
47299;SDS011;33036;51.320;17.234;2022-11-27T00:06:23;71.13;;;27.17;;
47299;SDS011;33036;51.320;17.234;2022-11-27T00:10:25;80.68;;;28.52;;
47299;SDS011;33036;51.320;17.234;2022-11-27T00:14:26;76.45;;;31.10;;
47299;SDS011;33036;51.320;17.234;2022-11-27T00:18:27;85.72;;;31.80;;
47299;SDS011;33036;51.320;17.234;2022-11-27T00:22:28;103.70;;;35.38;;
47299;SDS011;33036;51.320;17.234;2022-11-27T00:26:30;93.43;;;32.28;;
47299;SDS011;33036;51.320;17.234;2022-11-27T00:30:31;112.53;;;36.05;;
47299;SDS011;33036;51.320;17.234;2022-11-27T00:34:33;112.28;;;34.65;;
47299;SDS011;33036;51.320;17.234;2022-11-27T00:38:34;120.65;;;37.70;;
47299;SDS011;33036;51.320;17.234;2022-11-27T00:42:35;124.43;;;38.47;;
47299;SDS011;33036;51.320;17.234;2022-11-27T00:46:36;113.80;;;37.85;;
47299;SDS011;33036;51.320;17.234;2022-11-27T00:50:37;123.60;;;37.45;;
47299;SDS011;33036;51.320;17.234;2022-11-27T00:54:39;129.68;;;41.95;;
47299;SDS011;33036;51.320;17.234;2022-11-27T00:58:40;143.10;;;40.92;;
47299;SDS011;33036;51.320;17.234;2022-11-27T01:02:41;137.65;;;41.63;;
47299;SDS011;33036;51.320;17.234;2022-11-27T01:06:42;136.80;;;39.88;;
47299;SDS011;33036;51.320;17.234;2022-11-27T01:10:47;133.27;;;38.78;;
47299;SDS011;33036;51.320;17.234;2022-11-27T01:14:49;158.05;;;40.42;;
47299;SDS011;33036;51.320;17.234;2022-11-27T01:18:50;154.02;;;41.17;;
47299;SDS011;33036;51.320;17.234;2022-11-27T01:22:53;152.30;;;40.45;;
47299;SDS011;33036;51.320;17.234;2022-11-27T01:26:54;144.27;;;37.72;;
47299;SDS011;33036;51.320;17.234;2022-11-27T01:30:55;131.45;;;36.33;;
47299;SDS011;33036;51.320;17.234;2022-11-27T01:34:56;143.82;;;39.92;;
47299;SDS011;33036;51.320;17.234;2022-11-27T01:38:57;139.73;;;35.88;;
47299;SDS011;33036;51.320;17.234;2022-11-27T01:42:58;149.50;;;36.47;;
47299;SDS011;33036;51.320;17.234;2022-11-27T01:51:06;151.85;;;35.30;;
47299;SDS011;33036;51.320;17.234;2022-11-27T01:55:10;149.50;;;38.05;;
47299;SDS011;33036;51.320;17.234;2022-11-27T01:59:20;145.38;;;38.75;;
47299;SDS011;33036;51.320;17.234;2022-11-27T02:03:22;132.00;;;37.85;;
47299;SDS011;33036;51.320;17.234;2022-11-27T02:07:23;144.43;;;39.58;;
47299;SDS011;33036;51.320;17.234;2022-11-27T02:11:46;147.75;;;38.80;;
47299;SDS011;33036;51.320;17.234;2022-11-27T02:16:04;125.45;;;35.35;;
47299;SDS011;33036;51.320;17.234;2022-11-27T02:24:36;136.50;;;36.17;;
47299;SDS011;33036;51.320;17.234;2022-11-27T02:33:05;134.02;;;37.72;;
47299;SDS011;33036;51.320;17.234;2022-11-27T02:41:14;137.15;;;39.35;;
47299;SDS011;33036;51.320;17.234;2022-11-27T02:45:23;131.80;;;36.97;;
47299;SDS011;33036;51.320;17.234;2022-11-27T02:49:27;134.83;;;38.60;;
47299;SDS011;33036;51.320;17.234;2022-11-27T02:53:30;150.45;;;39.75;;
47299;SDS011;33036;51.320;17.234;2022-11-27T02:57:38;135.45;;;38.88;;
47299;SDS011;33036;51.320;17.234;2022-11-27T03:01:40;153.23;;;40.55;;
47299;SDS011;33036;51.320;17.234;2022-11-27T03:05:45;141.38;;;38.90;;
47299;SDS011;33036;51.320;17.234;2022-11-27T03:09:47;157.70;;;39.60;;
47299;SDS011;33036;51.320;17.234;2022-11-27T03:13:52;151.27;;;38.78;;
47299;SDS011;33036;51.320;17.234;2022-11-27T03:18:00;174.50;;;39.75;;
47299;SDS011;33036;51.320;17.234;2022-11-27T03:22:06;167.75;;;38.65;;
47299;SDS011;33036;51.320;17.234;2022-11-27T03:26:07;151.82;;;38.95;;
47299;SDS011;33036;51.320;17.234;2022-11-27T03:30:08;156.35;;;38.45;;
47299;SDS011;33036;51.320;17.234;2022-11-27T03:34:09;161.38;;;35.65;;
47299;SDS011;33036;51.320;17.234;2022-11-27T03:38:11;138.23;;;36.92;;
47299;SDS011;33036;51.320;17.234;2022-11-27T03:42:19;173.57;;;37.95;;
47299;SDS011;33036;51.320;17.234;2022-11-27T03:46:28;150.95;;;37.78;;
47299;SDS011;33036;51.320;17.234;2022-11-27T03:59:29;202.50;;;40.00;;
47299;SDS011;33036;51.320;17.234;2022-11-27T04:03:32;230.45;;;57.78;;
47299;SDS011;33036;51.320;17.234;2022-11-27T04:07:33;279.08;;;53.83;;
47299;SDS011;33036;51.320;17.234;2022-11-27T04:11:34;227.73;;;38.33;;
47299;SDS011;33036;51.320;17.234;2022-11-27T04:15:35;161.10;;;37.88;;
47299;SDS011;33036;51.320;17.234;2022-11-27T04:19:37;140.30;;;37.40;;
47299;SDS011;33036;51.320;17.234;2022-11-27T04:23:38;159.80;;;37.13;;
47299;SDS011;33036;51.320;17.234;2022-11-27T04:27:40;165.57;;;39.35;;
47299;SDS011;33036;51.320;17.234;2022-11-27T04:31:41;276.67;;;93.03;;
47299;SDS011;33036;51.320;17.234;2022-11-27T04:35:42;405.45;;;95.47;;
47299;SDS011;33036;51.320;17.234;2022-11-27T04:39:43;368.05;;;78.53;;
47299;SDS011;33036;51.320;17.234;2022-11-27T04:43:44;186.55;;;46.95;;
47299;SDS011;33036;51.320;17.234;2022-11-27T04:47:45;145.85;;;36.13;;
47299;SDS011;33036;51.320;17.234;2022-11-27T04:51:46;153.73;;;41.53;;
47299;SDS011;33036;51.320;17.234;2022-11-27T04:55:47;149.05;;;36.08;;
47299;SDS011;33036;51.320;17.234;2022-11-27T04:59:48;150.90;;;36.08;;
47299;SDS011;33036;51.320;17.234;2022-11-27T05:03:48;188.43;;;35.38;;
47299;SDS011;33036;51.320;17.234;2022-11-27T05:07:50;124.47;;;33.05;;
47299;SDS011;33036;51.320;17.234;2022-11-27T05:11:51;158.93;;;29.30;;
47299;SDS011;33036;51.320;17.234;2022-11-27T05:15:52;127.47;;;28.77;;
47299;SDS011;33036;51.320;17.234;2022-11-27T05:19:52;213.05;;;29.73;;
47299;SDS011;33036;51.320;17.234;2022-11-27T05:23:54;156.38;;;29.38;;
47299;SDS011;33036;51.320;17.234;2022-11-27T05:27:54;185.00;;;30.92;;
47299;SDS011;33036;51.320;17.234;2022-11-27T05:31:56;205.77;;;31.00;;
47299;SDS011;33036;51.320;17.234;2022-11-27T05:35:57;195.52;;;29.88;;
47299;SDS011;33036;51.320;17.234;2022-11-27T05:39:58;208.05;;;31.17;;
47299;SDS011;33036;51.320;17.234;2022-11-27T05:43:59;358.80;;;34.15;;
47299;SDS011;33036;51.320;17.234;2022-11-27T05:48:00;360.35;;;33.03;;
47299;SDS011;33036;51.320;17.234;2022-11-27T05:52:01;316.23;;;33.90;;
47299;SDS011;33036;51.320;17.234;2022-11-27T05:56:04;300.17;;;33.58;;
47299;SDS011;33036;51.320;17.234;2022-11-27T06:00:07;311.02;;;34.15;;
47299;SDS011;33036;51.320;17.234;2022-11-27T06:04:08;258.98;;;31.52;;
47299;SDS011;33036;51.320;17.234;2022-11-27T06:08:09;309.20;;;35.55;;
47299;SDS011;33036;51.320;17.234;2022-11-27T06:12:10;232.30;;;41.72;;
47299;SDS011;33036;51.320;17.234;2022-11-27T06:16:12;243.38;;;38.15;;
47299;SDS011;33036;51.320;17.234;2022-11-27T06:20:15;182.40;;;36.60;;
47299;SDS011;33036;51.320;17.234;2022-11-27T06:24:16;231.30;;;36.78;;
47299;SDS011;33036;51.320;17.234;2022-11-27T06:28:17;186.40;;;33.50;;
47299;SDS011;33036;51.320;17.234;2022-11-27T06:32:18;202.07;;;30.60;;
47299;SDS011;33036;51.320;17.234;2022-11-27T06:36:20;155.82;;;27.80;;
47299;SDS011;33036;51.320;17.234;2022-11-27T06:40:21;128.98;;;28.02;;
47299;SDS011;33036;51.320;17.234;2022-11-27T06:44:23;115.07;;;26.45;;
47299;SDS011;33036;51.320;17.234;2022-11-27T06:48:23;141.90;;;26.95;;
47299;SDS011;33036;51.320;17.234;2022-11-27T06:52:25;85.38;;;26.30;;
47299;SDS011;33036;51.320;17.234;2022-11-27T06:56:26;66.93;;;23.17;;
47299;SDS011;33036;51.320;17.234;2022-11-27T07:00:28;57.92;;;21.20;;
47299;SDS011;33036;51.320;17.234;2022-11-27T07:04:29;62.95;;;23.38;;
47299;SDS011;33036;51.320;17.234;2022-11-27T07:08:30;62.97;;;22.92;;
47299;SDS011;33036;51.320;17.234;2022-11-27T07:12:32;54.25;;;20.67;;
47299;SDS011;33036;51.320;17.234;2022-11-27T07:16:34;56.00;;;20.65;;
47299;SDS011;33036;51.320;17.234;2022-11-27T07:20:35;50.05;;;19.48;;
47299;SDS011;33036;51.320;17.234;2022-11-27T07:24:36;43.42;;;18.83;;
47299;SDS011;33036;51.320;17.234;2022-11-27T07:28:37;44.05;;;19.58;;
47299;SDS011;33036;51.320;17.234;2022-11-27T07:32:39;36.45;;;17.13;;
47299;SDS011;33036;51.320;17.234;2022-11-27T07:36:40;37.20;;;16.80;;
47299;SDS011;33036;51.320;17.234;2022-11-27T07:40:41;38.58;;;16.67;;
47299;SDS011;33036;51.320;17.234;2022-11-27T07:44:42;44.35;;;20.33;;
47299;SDS011;33036;51.320;17.234;2022-11-27T07:48:44;47.72;;;21.80;;
47299;SDS011;33036;51.320;17.234;2022-11-27T07:52:45;41.78;;;20.92;;
47299;SDS011;33036;51.320;17.234;2022-11-27T07:56:46;37.08;;;17.90;;
47299;SDS011;33036;51.320;17.234;2022-11-27T08:00:47;46.72;;;20.42;;
47299;SDS011;33036;51.320;17.234;2022-11-27T08:04:48;63.38;;;24.98;;
47299;SDS011;33036;51.320;17.234;2022-11-27T08:08:49;91.70;;;31.25;;
47299;SDS011;33036;51.320;17.234;2022-11-27T08:12:50;85.38;;;30.35;;
47299;SDS011;33036;51.320;17.234;2022-11-27T08:16:51;88.28;;;31.52;;
47299;SDS011;33036;51.320;17.234;2022-11-27T08:20:52;136.85;;;40.40;;
47299;SDS011;33036;51.320;17.234;2022-11-27T08:24:53;223.93;;;37.17;;
47299;SDS011;33036;51.320;17.234;2022-11-27T08:28:55;199.77;;;41.33;;
47299;SDS011;33036;51.320;17.234;2022-11-27T08:32:56;192.05;;;37.75;;
47299;SDS011;33036;51.320;17.234;2022-11-27T08:36:57;252.85;;;41.78;;
47299;SDS011;33036;51.320;17.234;2022-11-27T08:40:59;262.30;;;43.03;;
47299;SDS011;33036;51.320;17.234;2022-11-27T08:45:02;292.13;;;38.25;;
47299;SDS011;33036;51.320;17.234;2022-11-27T08:49:03;321.73;;;45.47;;
47299;SDS011;33036;51.320;17.234;2022-11-27T08:53:04;161.23;;;34.13;;
47299;SDS011;33036;51.320;17.234;2022-11-27T08:57:05;212.70;;;45.28;;
47299;SDS011;33036;51.320;17.234;2022-11-27T09:01:10;124.53;;;32.35;;
47299;SDS011;33036;51.320;17.234;2022-11-27T09:05:13;180.75;;;42.10;;
47299;SDS011;33036;51.320;17.234;2022-11-27T09:09:15;162.38;;;40.22;;
47299;SDS011;33036;51.320;17.234;2022-11-27T09:13:16;135.13;;;34.03;;
47299;SDS011;33036;51.320;17.234;2022-11-27T09:17:18;149.77;;;38.30;;
47299;SDS011;33036;51.320;17.234;2022-11-27T09:21:20;251.00;;;52.65;;
47299;SDS011;33036;51.320;17.234;2022-11-27T09:25:22;134.77;;;41.38;;
47299;SDS011;33036;51.320;17.234;2022-11-27T09:29:23;186.13;;;46.20;;
47299;SDS011;33036;51.320;17.234;2022-11-27T09:33:25;115.25;;;33.63;;
47299;SDS011;33036;51.320;17.234;2022-11-27T09:37:27;90.90;;;28.20;;
47299;SDS011;33036;51.320;17.234;2022-11-27T09:45:42;102.35;;;33.58;;
47299;SDS011;33036;51.320;17.234;2022-11-27T09:53:48;71.93;;;27.20;;
47299;SDS011;33036;51.320;17.234;2022-11-27T09:58:02;73.50;;;28.98;;
47299;SDS011;33036;51.320;17.234;2022-11-27T10:15:34;74.53;;;29.85;;
47299;SDS011;33036;51.320;17.234;2022-11-27T10:23:52;56.78;;;26.48;;
47299;SDS011;33036;51.320;17.234;2022-11-27T10:28:00;67.80;;;28.83;;
47299;SDS011;33036;51.320;17.234;2022-11-27T10:32:04;55.40;;;26.63;;
47299;SDS011;33036;51.320;17.234;2022-11-27T10:36:12;56.63;;;27.05;;
47299;SDS011;33036;51.320;17.234;2022-11-27T10:40:26;58.72;;;26.65;;
47299;SDS011;33036;51.320;17.234;2022-11-27T10:44:31;70.63;;;31.60;;
47299;SDS011;33036;51.320;17.234;2022-11-27T10:48:34;62.85;;;27.65;;
47299;SDS011;33036;51.320;17.234;2022-11-27T10:52:35;82.50;;;35.75;;
47299;SDS011;33036;51.320;17.234;2022-11-27T10:57:12;76.30;;;30.83;;
47299;SDS011;33036;51.320;17.234;2022-11-27T11:01:24;69.75;;;30.75;;
47299;SDS011;33036;51.320;17.234;2022-11-27T11:05:27;60.28;;;26.70;;
47299;SDS011;33036;51.320;17.234;2022-11-27T11:09:30;77.05;;;31.65;;
47299;SDS011;33036;51.320;17.234;2022-11-27T11:17:41;54.55;;;26.23;;
47299;SDS011;33036;51.320;17.234;2022-11-27T11:21:42;97.50;;;40.13;;
47299;SDS011;33036;51.320;17.234;2022-11-27T11:25:47;61.03;;;28.17;;
47299;SDS011;33036;51.320;17.234;2022-11-27T11:29:56;58.25;;;26.38;;
47299;SDS011;33036;51.320;17.234;2022-11-27T11:34:01;59.55;;;27.92;;
47299;SDS011;33036;51.320;17.234;2022-11-27T11:38:04;69.43;;;30.10;;
47299;SDS011;33036;51.320;17.234;2022-11-27T11:42:07;72.70;;;30.20;;
47299;SDS011;33036;51.320;17.234;2022-11-27T12:03:40;61.88;;;29.63;;
47299;SDS011;33036;51.320;17.234;2022-11-27T12:08:02;59.33;;;27.55;;
47299;SDS011;33036;51.320;17.234;2022-11-27T12:12:46;53.08;;;25.67;;
47299;SDS011;33036;51.320;17.234;2022-11-27T12:21:25;46.97;;;21.85;;
47299;SDS011;33036;51.320;17.234;2022-11-27T12:38:32;41.35;;;21.13;;
47299;SDS011;33036;51.320;17.234;2022-11-27T12:51:12;44.63;;;22.52;;
47299;SDS011;33036;51.320;17.234;2022-11-27T12:55:20;64.23;;;28.20;;
47299;SDS011;33036;51.320;17.234;2022-11-27T12:59:26;61.45;;;28.60;;
47299;SDS011;33036;51.320;17.234;2022-11-27T13:03:47;46.75;;;25.17;;
47299;SDS011;33036;51.320;17.234;2022-11-27T13:08:03;42.03;;;24.05;;
47299;SDS011;33036;51.320;17.234;2022-11-27T13:12:11;47.95;;;25.88;;
47299;SDS011;33036;51.320;17.234;2022-11-27T13:16:22;49.90;;;25.70;;
47299;SDS011;33036;51.320;17.234;2022-11-27T13:24:32;47.97;;;23.73;;
47299;SDS011;33036;51.320;17.234;2022-11-27T13:28:40;41.95;;;22.02;;
47299;SDS011;33036;51.320;17.234;2022-11-27T13:32:47;46.13;;;23.45;;
47299;SDS011;33036;51.320;17.234;2022-11-27T13:36:55;57.40;;;25.90;;
47299;SDS011;33036;51.320;17.234;2022-11-27T13:41:05;68.65;;;28.60;;
47299;SDS011;33036;51.320;17.234;2022-11-27T13:45:08;63.60;;;29.38;;
47299;SDS011;33036;51.320;17.234;2022-11-27T13:49:29;82.13;;;31.75;;
47299;SDS011;33036;51.320;17.234;2022-11-27T13:53:36;89.50;;;36.97;;
47299;SDS011;33036;51.320;17.234;2022-11-27T13:57:41;61.95;;;27.55;;
47299;SDS011;33036;51.320;17.234;2022-11-27T14:01:56;62.35;;;30.63;;
47299;SDS011;33036;51.320;17.234;2022-11-27T14:06:01;55.35;;;28.33;;
47299;SDS011;33036;51.320;17.234;2022-11-27T14:10:22;46.60;;;24.25;;
47299;SDS011;33036;51.320;17.234;2022-11-27T14:14:25;56.67;;;27.13;;
47299;SDS011;33036;51.320;17.234;2022-11-27T14:18:27;52.47;;;27.80;;
47299;SDS011;33036;51.320;17.234;2022-11-27T14:26:45;52.65;;;26.83;;
47299;SDS011;33036;51.320;17.234;2022-11-27T14:30:50;56.38;;;30.13;;
47299;SDS011;33036;51.320;17.234;2022-11-27T14:34:53;55.92;;;28.58;;
47299;SDS011;33036;51.320;17.234;2022-11-27T14:38:57;56.40;;;28.35;;
47299;SDS011;33036;51.320;17.234;2022-11-27T14:43:08;62.30;;;30.67;;
47299;SDS011;33036;51.320;17.234;2022-11-27T14:47:17;69.63;;;33.58;;
47299;SDS011;33036;51.320;17.234;2022-11-27T14:51:20;76.70;;;36.42;;
47299;SDS011;33036;51.320;17.234;2022-11-27T14:55:23;84.13;;;39.40;;
47299;SDS011;33036;51.320;17.234;2022-11-27T14:59:24;71.60;;;35.25;;
47299;SDS011;33036;51.320;17.234;2022-11-27T15:03:25;80.75;;;38.55;;
47299;SDS011;33036;51.320;17.234;2022-11-27T15:07:27;71.93;;;33.60;;
47299;SDS011;33036;51.320;17.234;2022-11-27T15:11:30;75.40;;;35.10;;
47299;SDS011;33036;51.320;17.234;2022-11-27T15:15:32;74.20;;;34.92;;
47299;SDS011;33036;51.320;17.234;2022-11-27T15:19:38;79.40;;;35.20;;
47299;SDS011;33036;51.320;17.234;2022-11-27T15:23:42;71.05;;;32.10;;
47299;SDS011;33036;51.320;17.234;2022-11-27T15:27:45;76.47;;;33.50;;
47299;SDS011;33036;51.320;17.234;2022-11-27T15:31:50;75.13;;;32.65;;
47299;SDS011;33036;51.320;17.234;2022-11-27T15:35:52;80.80;;;34.45;;
47299;SDS011;33036;51.320;17.234;2022-11-27T15:40:25;71.57;;;32.13;;
47299;SDS011;33036;51.320;17.234;2022-11-27T15:44:29;68.47;;;32.03;;
47299;SDS011;33036;51.320;17.234;2022-11-27T15:48:31;73.50;;;30.65;;
47299;SDS011;33036;51.320;17.234;2022-11-27T15:52:32;77.68;;;34.40;;
47299;SDS011;33036;51.320;17.234;2022-11-27T15:56:33;81.20;;;38.80;;
47299;SDS011;33036;51.320;17.234;2022-11-27T16:00:35;81.00;;;34.25;;
47299;SDS011;33036;51.320;17.234;2022-11-27T16:04:36;80.40;;;34.75;;
47299;SDS011;33036;51.320;17.234;2022-11-27T16:08:37;74.38;;;34.80;;
47299;SDS011;33036;51.320;17.234;2022-11-27T16:12:38;84.00;;;37.45;;
47299;SDS011;33036;51.320;17.234;2022-11-27T16:16:40;88.57;;;38.75;;
47299;SDS011;33036;51.320;17.234;2022-11-27T16:20:41;74.43;;;33.97;;
47299;SDS011;33036;51.320;17.234;2022-11-27T16:24:44;79.18;;;34.20;;
47299;SDS011;33036;51.320;17.234;2022-11-27T16:28:45;98.30;;;40.22;;
47299;SDS011;33036;51.320;17.234;2022-11-27T16:32:47;84.95;;;37.25;;
47299;SDS011;33036;51.320;17.234;2022-11-27T16:36:48;82.55;;;36.85;;
47299;SDS011;33036;51.320;17.234;2022-11-27T16:40:50;97.63;;;43.75;;
47299;SDS011;33036;51.320;17.234;2022-11-27T16:44:52;79.90;;;37.30;;
47299;SDS011;33036;51.320;17.234;2022-11-27T16:48:54;90.40;;;35.67;;
47299;SDS011;33036;51.320;17.234;2022-11-27T16:52:56;78.55;;;37.10;;
47299;SDS011;33036;51.320;17.234;2022-11-27T16:56:57;75.40;;;34.78;;
47299;SDS011;33036;51.320;17.234;2022-11-27T17:01:02;81.55;;;34.53;;
47299;SDS011;33036;51.320;17.234;2022-11-27T17:05:05;84.88;;;34.83;;
47299;SDS011;33036;51.320;17.234;2022-11-27T17:09:08;79.18;;;35.78;;
47299;SDS011;33036;51.320;17.234;2022-11-27T17:13:09;86.45;;;38.08;;
47299;SDS011;33036;51.320;17.234;2022-11-27T17:17:12;84.82;;;36.78;;
47299;SDS011;33036;51.320;17.234;2022-11-27T17:21:14;78.65;;;33.45;;
47299;SDS011;33036;51.320;17.234;2022-11-27T17:25:17;75.05;;;34.25;;
47299;SDS011;33036;51.320;17.234;2022-11-27T17:29:19;74.75;;;32.85;;
47299;SDS011;33036;51.320;17.234;2022-11-27T17:33:23;74.10;;;32.53;;
47299;SDS011;33036;51.320;17.234;2022-11-27T17:37:24;86.05;;;36.13;;
47299;SDS011;33036;51.320;17.234;2022-11-27T17:41:25;75.50;;;34.03;;
47299;SDS011;33036;51.320;17.234;2022-11-27T17:45:26;82.55;;;35.35;;
47299;SDS011;33036;51.320;17.234;2022-11-27T17:49:27;81.30;;;37.35;;
47299;SDS011;33036;51.320;17.234;2022-11-27T17:53:29;79.97;;;35.67;;
47299;SDS011;33036;51.320;17.234;2022-11-27T17:57:30;84.72;;;37.47;;
47299;SDS011;33036;51.320;17.234;2022-11-27T18:01:32;86.70;;;37.40;;
47299;SDS011;33036;51.320;17.234;2022-11-27T18:05:35;90.78;;;36.53;;
47299;SDS011;33036;51.320;17.234;2022-11-27T18:09:38;85.22;;;36.25;;
47299;SDS011;33036;51.320;17.234;2022-11-27T18:13:39;95.90;;;39.22;;
47299;SDS011;33036;51.320;17.234;2022-11-27T18:17:41;101.97;;;43.00;;
47299;SDS011;33036;51.320;17.234;2022-11-27T18:21:42;164.02;;;74.35;;
47299;SDS011;33036;51.320;17.234;2022-11-27T18:25:43;157.02;;;72.95;;
47299;SDS011;33036;51.320;17.234;2022-11-27T18:29:45;187.68;;;89.20;;
47299;SDS011;33036;51.320;17.234;2022-11-27T18:33:49;104.60;;;49.03;;
47299;SDS011;33036;51.320;17.234;2022-11-27T18:37:51;91.43;;;39.58;;
47299;SDS011;33036;51.320;17.234;2022-11-27T18:41:52;94.65;;;39.33;;
47299;SDS011;33036;51.320;17.234;2022-11-27T18:45:54;99.10;;;43.63;;
47299;SDS011;33036;51.320;17.234;2022-11-27T18:49:56;99.38;;;43.13;;
47299;SDS011;33036;51.320;17.234;2022-11-27T18:53:59;93.32;;;39.40;;
47299;SDS011;33036;51.320;17.234;2022-11-27T18:58:01;93.35;;;39.58;;
47299;SDS011;33036;51.320;17.234;2022-11-27T19:02:03;96.85;;;40.72;;
47299;SDS011;33036;51.320;17.234;2022-11-27T19:06:06;96.35;;;41.17;;
47299;SDS011;33036;51.320;17.234;2022-11-27T19:10:09;91.63;;;39.30;;
47299;SDS011;33036;51.320;17.234;2022-11-27T19:14:13;91.68;;;39.47;;
47299;SDS011;33036;51.320;17.234;2022-11-27T19:18:14;102.35;;;41.00;;
47299;SDS011;33036;51.320;17.234;2022-11-27T19:22:17;99.18;;;39.95;;
47299;SDS011;33036;51.320;17.234;2022-11-27T19:26:22;104.93;;;43.47;;
47299;SDS011;33036;51.320;17.234;2022-11-27T19:30:25;89.28;;;40.33;;
47299;SDS011;33036;51.320;17.234;2022-11-27T19:34:30;100.22;;;42.45;;
47299;SDS011;33036;51.320;17.234;2022-11-27T19:38:35;98.15;;;43.72;;
47299;SDS011;33036;51.320;17.234;2022-11-27T19:42:41;99.60;;;41.60;;
47299;SDS011;33036;51.320;17.234;2022-11-27T19:46:47;108.03;;;43.13;;
47299;SDS011;33036;51.320;17.234;2022-11-27T19:50:52;99.60;;;42.28;;
47299;SDS011;33036;51.320;17.234;2022-11-27T19:54:54;108.13;;;40.92;;
47299;SDS011;33036;51.320;17.234;2022-11-27T19:58:56;99.43;;;41.65;;
47299;SDS011;33036;51.320;17.234;2022-11-27T20:02:57;101.10;;;42.00;;
47299;SDS011;33036;51.320;17.234;2022-11-27T20:07:01;99.75;;;40.80;;
47299;SDS011;33036;51.320;17.234;2022-11-27T20:11:05;97.72;;;41.58;;
47299;SDS011;33036;51.320;17.234;2022-11-27T20:15:12;94.35;;;38.28;;
47299;SDS011;33036;51.320;17.234;2022-11-27T20:19:16;88.75;;;36.97;;
47299;SDS011;33036;51.320;17.234;2022-11-27T20:23:18;100.07;;;39.15;;
47299;SDS011;33036;51.320;17.234;2022-11-27T20:27:19;90.53;;;39.00;;
47299;SDS011;33036;51.320;17.234;2022-11-27T20:31:22;108.38;;;40.28;;
47299;SDS011;33036;51.320;17.234;2022-11-27T20:35:28;103.45;;;39.60;;
47299;SDS011;33036;51.320;17.234;2022-11-27T20:39:30;87.93;;;37.85;;
47299;SDS011;33036;51.320;17.234;2022-11-27T20:43:31;95.55;;;38.38;;
47299;SDS011;33036;51.320;17.234;2022-11-27T20:47:35;102.20;;;38.03;;
47299;SDS011;33036;51.320;17.234;2022-11-27T20:51:38;101.75;;;40.35;;
47299;SDS011;33036;51.320;17.234;2022-11-27T20:55:41;99.25;;;37.50;;
47299;SDS011;33036;51.320;17.234;2022-11-27T20:59:46;95.07;;;38.65;;
47299;SDS011;33036;51.320;17.234;2022-11-27T21:03:48;102.32;;;39.35;;
47299;SDS011;33036;51.320;17.234;2022-11-27T21:07:53;102.97;;;40.10;;
47299;SDS011;33036;51.320;17.234;2022-11-27T21:11:59;100.60;;;40.85;;
47299;SDS011;33036;51.320;17.234;2022-11-27T21:16:05;110.78;;;41.83;;
47299;SDS011;33036;51.320;17.234;2022-11-27T21:20:09;116.75;;;44.88;;
47299;SDS011;33036;51.320;17.234;2022-11-27T21:24:34;110.95;;;41.95;;
47299;SDS011;33036;51.320;17.234;2022-11-27T21:28:35;112.40;;;43.03;;
47299;SDS011;33036;51.320;17.234;2022-11-27T21:32:39;111.15;;;42.78;;
47299;SDS011;33036;51.320;17.234;2022-11-27T21:36:41;101.20;;;40.53;;
47299;SDS011;33036;51.320;17.234;2022-11-27T21:40:43;106.88;;;41.38;;
47299;SDS011;33036;51.320;17.234;2022-11-27T21:44:46;107.55;;;40.22;;
47299;SDS011;33036;51.320;17.234;2022-11-27T21:48:51;103.05;;;40.05;;
47299;SDS011;33036;51.320;17.234;2022-11-27T21:52:56;99.65;;;40.72;;
47299;SDS011;33036;51.320;17.234;2022-11-27T21:56:57;101.90;;;40.28;;
47299;SDS011;33036;51.320;17.234;2022-11-27T22:00:58;94.20;;;37.55;;
47299;SDS011;33036;51.320;17.234;2022-11-27T22:05:03;105.07;;;39.78;;
47299;SDS011;33036;51.320;17.234;2022-11-27T22:09:05;97.20;;;38.70;;
47299;SDS011;33036;51.320;17.234;2022-11-27T22:13:08;91.75;;;38.20;;
47299;SDS011;33036;51.320;17.234;2022-11-27T22:17:09;89.03;;;36.90;;
47299;SDS011;33036;51.320;17.234;2022-11-27T22:21:10;95.03;;;38.40;;
47299;SDS011;33036;51.320;17.234;2022-11-27T22:25:12;106.90;;;42.25;;
47299;SDS011;33036;51.320;17.234;2022-11-27T22:29:14;97.75;;;40.00;;
47299;SDS011;33036;51.320;17.234;2022-11-27T22:33:16;102.88;;;42.95;;
47299;SDS011;33036;51.320;17.234;2022-11-27T22:37:17;106.25;;;42.70;;
47299;SDS011;33036;51.320;17.234;2022-11-27T22:41:20;115.18;;;43.65;;
47299;SDS011;33036;51.320;17.234;2022-11-27T22:45:21;110.60;;;43.33;;
47299;SDS011;33036;51.320;17.234;2022-11-27T22:49:23;112.43;;;44.78;;
47299;SDS011;33036;51.320;17.234;2022-11-27T22:53:24;111.43;;;46.83;;
47299;SDS011;33036;51.320;17.234;2022-11-27T22:57:25;115.45;;;47.25;;
47299;SDS011;33036;51.320;17.234;2022-11-27T23:01:26;108.40;;;47.13;;
47299;SDS011;33036;51.320;17.234;2022-11-27T23:05:27;110.00;;;46.78;;
47299;SDS011;33036;51.320;17.234;2022-11-27T23:09:28;121.32;;;47.42;;
47299;SDS011;33036;51.320;17.234;2022-11-27T23:13:30;112.95;;;46.80;;
47299;SDS011;33036;51.320;17.234;2022-11-27T23:17:31;122.75;;;50.80;;
47299;SDS011;33036;51.320;17.234;2022-11-27T23:21:32;118.82;;;50.15;;
47299;SDS011;33036;51.320;17.234;2022-11-27T23:25:37;117.32;;;47.97;;
47299;SDS011;33036;51.320;17.234;2022-11-27T23:29:38;111.65;;;48.15;;
47299;SDS011;33036;51.320;17.234;2022-11-27T23:33:39;117.97;;;49.05;;
47299;SDS011;33036;51.320;17.234;2022-11-27T23:37:42;127.13;;;51.08;;
47299;SDS011;33036;51.320;17.234;2022-11-27T23:41:43;130.30;;;50.83;;
47299;SDS011;33036;51.320;17.234;2022-11-27T23:45:44;121.93;;;51.28;;
47299;SDS011;33036;51.320;17.234;2022-11-27T23:49:45;129.30;;;50.88;;
47299;SDS011;33036;51.320;17.234;2022-11-27T23:53:46;121.30;;;53.25;;
47299;SDS011;33036;51.320;17.234;2022-11-27T23:57:47;123.57;;;53.30;;
